Terminal Aerodrome Forecast
Issued by NWS Wilmington, OH

Current Version | Previous Version | Graphics & Text | Print | Product List | Glossary On
Versions: 1 2 3 4 5 6 7 8 9 10 11 12 13 14 15 16 17 18 19 20 21 22 23 24 25 26 27 28
000
FTUS41 KILN 282059 AAA
TAFCVG
TAF AMD
KCVG 282059Z 2821/2924 33005KT P6SM VCSH BKN035
     FM282300 VRB03KT P6SM BKN035
     FM290600 00000KT 4SM BR SCT035
     FM291000 00000KT 2SM BR FEW035 SCT250
     FM291300 28005KT P6SM SCT150 BKN250
     FM292000 28009KT P6SM -SHRA VCTS BKN035CB=

USA.gov is the U.S. government's official web portal to all federal, state and local government web resources and services.